createdAt,value
2014-09-15T00:00:13.315Z,17.87
2014-09-15T00:01:18.004Z,17.81
2014-09-15T00:02:22.678Z,17.99
2014-09-15T00:03:27.368Z,18.04
2014-09-15T00:04:32.338Z,18.15
2014-09-15T00:05:37.325Z,18.1
2014-09-15T00:06:42.311Z,18.02
2014-09-15T00:07:47.282Z,17.97
2014-09-15T00:08:51.972Z,17.89
2014-09-15T00:09:56.646Z,17.9
2014-09-15T00:11:01.336Z,17.96
2014-09-15T00:12:06.307Z,17.75
2014-09-15T00:13:10.996Z,17.75
2014-09-15T00:14:15.670Z,17.87
2014-09-15T00:15:20.359Z,17.48
2014-09-15T00:16:25.033Z,17.42
2014-09-15T00:17:29.723Z,17.73
2014-09-15T00:18:34.397Z,17.83
2014-09-15T00:19:39.383Z,17.65
2014-09-15T00:20:44.057Z,17.4
2014-09-15T00:21:48.748Z,17.38
2014-09-15T00:22:53.718Z,17.22
2014-09-15T00:23:58.409Z,17.3
2014-09-15T00:25:03.379Z,17.71
2014-09-15T00:26:08.069Z,17.6
2014-09-15T00:27:12.743Z,17.32
2014-09-15T00:28:17.729Z,17.62
2014-09-15T00:29:22.403Z,17.76
2014-09-15T00:30:27.093Z,17.74
2014-09-15T00:31:31.765Z,17.81
2014-09-15T00:32:36.455Z,17.54
2014-09-15T00:33:41.129Z,17.29
2014-09-15T00:34:45.818Z,17.22
2014-09-15T00:35:50.492Z,17.12
2014-09-15T00:36:55.183Z,17.64
2014-09-15T00:38:00.153Z,17.8
2014-09-15T00:39:04.844Z,17.81
2014-09-15T00:40:09.815Z,17.57
2014-09-15T00:41:14.503Z,17.3
2014-09-15T00:42:19.177Z,17.26
2014-09-15T00:43:23.867Z,17.52
2014-09-15T00:44:28.540Z,17.74
2014-09-15T00:45:33.230Z,17.73
2014-09-15T00:46:37.904Z,17.85
2014-09-15T00:47:42.890Z,17.96
2014-09-15T00:48:47.564Z,18.04
2014-09-15T00:49:52.254Z,17.98
2014-09-15T00:50:56.945Z,17.88
2014-09-15T00:52:01.635Z,17.66
2014-09-15T00:53:06.307Z,17.12
2014-09-15T00:54:11.294Z,16.84
2014-09-15T00:55:16.265Z,16.8
2014-09-15T00:56:20.954Z,16.77
2014-09-15T00:57:25.628Z,16.82
2014-09-15T00:58:30.317Z,16.88
2014-09-15T00:59:35.008Z,16.92
2014-09-15T01:00:39.697Z,16.93
2014-09-15T01:01:44.684Z,17.14
2014-09-15T01:02:49.655Z,17.54
2014-09-15T01:03:54.345Z,17.58
2014-09-15T01:04:59.330Z,17.57
2014-09-15T01:06:04.301Z,17.59
2014-09-15T01:07:09.288Z,17.39
2014-09-15T01:08:13.961Z,17.52
2014-09-15T01:09:18.948Z,17.66
2014-09-15T01:10:23.934Z,17.72
2014-09-15T01:11:28.921Z,17.69
2014-09-15T01:12:33.891Z,17.74
2014-09-15T01:13:37.893Z,17.76
2014-09-15T01:14:42.567Z,17.76
2014-09-15T01:15:47.555Z,17.62
2014-09-15T01:16:52.541Z,17.74
2014-09-15T01:17:57.527Z,17.74
2014-09-15T01:19:02.202Z,17.6
2014-09-15T01:20:07.189Z,17.54
2014-09-15T01:21:11.861Z,17.52
2014-09-15T01:22:16.551Z,17.54
2014-09-15T01:23:21.537Z,17.48
2014-09-15T01:24:26.508Z,17.62
2014-09-15T01:25:31.198Z,17.49
2014-09-15T01:26:35.870Z,16.92
2014-09-15T01:27:40.857Z,16.72
2014-09-15T01:28:45.828Z,16.62
2014-09-15T01:29:50.517Z,16.67
2014-09-15T01:30:55.207Z,16.98
2014-09-15T01:31:59.880Z,17.27
2014-09-15T01:33:04.572Z,17.2
2014-09-15T01:34:09.246Z,17.44
2014-09-15T01:35:13.935Z,17.3
2014-09-15T01:36:18.609Z,17.34
2014-09-15T01:37:23.283Z,17.46
2014-09-15T01:38:28.269Z,17.48
2014-09-15T01:39:32.943Z,17.08
2014-09-15T01:40:37.930Z,16.87
2014-09-15T01:41:42.604Z,16.78
2014-09-15T01:42:47.590Z,16.73
2014-09-15T01:43:52.576Z,16.7
2014-09-15T01:44:57.547Z,16.77
2014-09-15T01:46:02.533Z,16.66
2014-09-15T01:47:07.207Z,16.74
2014-09-15T01:48:11.898Z,16.76
2014-09-15T01:49:16.587Z,16.78
2014-09-15T01:50:21.261Z,16.88
2014-09-15T01:51:25.951Z,16.83
2014-09-15T01:52:30.625Z,16.79
2014-09-15T01:53:35.315Z,17.16
2014-09-15T01:54:40.301Z,17.3
2014-09-15T01:55:45.271Z,17.25
2014-09-15T01:56:49.962Z,17.24
2014-09-15T01:57:54.651Z,17.29
2014-09-15T01:58:59.341Z,17.28
2014-09-15T02:00:04.015Z,17.42
2014-09-15T02:01:08.704Z,17.44
2014-09-15T02:02:13.689Z,17.55
2014-09-15T02:03:18.660Z,17.58
2014-09-15T02:04:23.648Z,17.34
2014-09-15T02:05:27.650Z,17.36
2014-09-15T02:06:32.322Z,17.29
2014-09-15T02:07:37.309Z,16.89
2014-09-15T02:08:41.983Z,16.75
2014-09-15T02:09:46.672Z,16.7
2014-09-15T02:10:51.346Z,16.72
2014-09-15T02:11:56.332Z,16.7
2014-09-15T02:13:01.006Z,16.55
2014-09-15T02:14:05.993Z,16.55
2014-09-15T02:15:10.669Z,16.64
2014-09-15T02:16:15.358Z,16.82
2014-09-15T02:17:20.032Z,17.16
2014-09-15T02:18:24.721Z,17.33
2014-09-15T02:19:29.692Z,17.24
2014-09-15T02:20:34.383Z,17.22
2014-09-15T02:21:39.056Z,17.34
2014-09-15T02:22:43.354Z,17.16
2014-09-15T02:23:48.028Z,17.11
2014-09-15T02:24:53.016Z,17.36
2014-09-15T02:25:57.705Z,17.52
2014-09-15T02:27:02.379Z,17.56
2014-09-15T02:28:07.053Z,17.49
2014-09-15T02:29:11.742Z,17.15
2014-09-15T02:30:16.416Z,16.92
2014-09-15T02:31:21.106Z,16.72
2014-09-15T02:32:25.780Z,16.62
2014-09-15T02:33:30.469Z,16.64
2014-09-15T02:34:35.142Z,16.92
2014-09-15T02:35:39.833Z,17.19
2014-09-15T02:36:44.506Z,17.27
2014-09-15T02:37:49.196Z,17.06
2014-09-15T02:38:54.183Z,16.82
2014-09-15T02:39:58.856Z,16.73
2014-09-15T02:41:03.844Z,16.63
2014-09-15T02:42:08.813Z,16.66
2014-09-15T02:43:13.503Z,17.17
2014-09-15T02:44:18.177Z,17.34
2014-09-15T02:45:22.866Z,17.49
2014-09-15T02:46:27.837Z,17.44
2014-09-15T02:47:32.526Z,17.44
2014-09-15T02:48:37.497Z,17.36
2014-09-15T02:49:42.188Z,17.58
2014-09-15T02:50:46.862Z,17.46
2014-09-15T02:51:51.552Z,17.34
2014-09-15T02:52:56.523Z,17.28
2014-09-15T02:54:01.211Z,17.52
2014-09-15T02:55:05.885Z,17.59
2014-09-15T02:56:10.575Z,17.4
2014-09-15T02:57:15.264Z,17.52
2014-09-15T02:58:19.938Z,17.3
2014-09-15T02:59:24.629Z,17.2
2014-09-15T03:00:29.302Z,17.32
2014-09-15T03:01:34.289Z,17.54
2014-09-15T03:02:38.963Z,17.67
2014-09-15T03:03:43.652Z,17.83
2014-09-15T03:04:48.327Z,17.82
2014-09-15T03:05:53.312Z,17.54
2014-09-15T03:06:58.003Z,17.78
2014-09-15T03:08:02.974Z,17.84
2014-09-15T03:09:07.976Z,17.8
2014-09-15T03:10:12.650Z,17.68
2014-09-15T03:11:17.339Z,17.71
2014-09-15T03:12:22.013Z,17.81
2014-09-15T03:13:26.702Z,17.9
2014-09-15T03:14:31.391Z,17.82
2014-09-15T03:15:36.065Z,17.72
2014-09-15T03:16:40.754Z,17.88
2014-09-15T03:17:45.727Z,17.52
2014-09-15T03:18:50.416Z,17.76
2014-09-15T03:19:55.386Z,17.84
2014-09-15T03:21:00.077Z,17.94
2014-09-15T03:22:04.751Z,17.92
2014-09-15T03:23:09.439Z,17.96
2014-09-15T03:24:14.113Z,18.05
2014-09-15T03:25:18.803Z,18.14
2014-09-15T03:26:23.476Z,17.74
2014-09-15T03:27:28.463Z,17.71
2014-09-15T03:28:33.137Z,17.83
2014-09-15T03:29:37.826Z,17.84
2014-09-15T03:30:42.501Z,17.96
2014-09-15T03:31:47.487Z,17.83
2014-09-15T03:32:52.458Z,17.31
2014-09-15T03:33:57.149Z,17.43
2014-09-15T03:35:01.822Z,17.68
2014-09-15T03:36:05.824Z,17.3
2014-09-15T03:37:10.794Z,17.59
2014-09-15T03:38:14.796Z,17.56
2014-09-15T03:39:19.486Z,17.37
2014-09-15T03:40:24.160Z,17.25
2014-09-15T03:41:29.146Z,17.62
2014-09-15T03:42:33.820Z,17.86
2014-09-15T03:43:38.509Z,17.83
2014-09-15T03:44:43.183Z,17.36
2014-09-15T03:45:47.872Z,17.36
2014-09-15T03:46:52.845Z,17.56
2014-09-15T03:47:57.535Z,17.82
2014-09-15T03:49:02.208Z,17.73
2014-09-15T03:50:06.897Z,17.71
2014-09-15T03:51:11.571Z,18.04
2014-09-15T03:52:16.261Z,18.03
2014-09-15T03:53:21.233Z,17.76
2014-09-15T03:54:25.921Z,17.58
2014-09-15T03:55:30.892Z,17.88
2014-09-15T03:56:35.878Z,17.96
2014-09-15T03:57:40.865Z,18.03
2014-09-15T03:58:45.539Z,17.84
2014-09-15T03:59:50.229Z,17.65
2014-09-15T04:00:54.903Z,17.75
2014-09-15T04:01:59.624Z,17.94
2014-09-15T04:03:04.595Z,18.19
2014-09-15T04:04:09.284Z,18.09
2014-09-15T04:05:13.958Z,17.78
2014-09-15T04:06:18.647Z,17.66
2014-09-15T04:07:23.634Z,17.64
2014-09-15T04:08:28.307Z,17.63
2014-09-15T04:09:32.997Z,17.84
2014-09-15T04:10:37.671Z,18.02
2014-09-15T04:11:42.360Z,18.12
2014-09-15T04:12:47.050Z,18.1
2014-09-15T04:13:52.036Z,18.19
2014-09-15T04:14:56.727Z,18.22
2014-09-15T04:16:01.697Z,18.22
2014-09-15T04:17:06.387Z,18.18
2014-09-15T04:18:11.061Z,18.19
2014-09-15T04:19:15.750Z,18.2
2014-09-15T04:20:20.424Z,18.39
2014-09-15T04:21:25.115Z,18.12
2014-09-15T04:22:29.788Z,17.88
2014-09-15T04:23:34.775Z,17.86
2014-09-15T04:24:39.449Z,17.96
2014-09-15T04:25:44.434Z,17.87
2014-09-15T04:26:49.109Z,17.92
2014-09-15T04:27:53.799Z,17.8
2014-09-15T04:28:58.472Z,17.79
2014-09-15T04:30:03.161Z,18.02
2014-09-15T04:31:07.836Z,18.14
2014-09-15T04:32:12.822Z,18.27
2014-09-15T04:33:17.512Z,18.45
2014-09-15T04:34:22.186Z,18.44
2014-09-15T04:35:26.875Z,18.51
2014-09-15T04:36:31.550Z,18.52
2014-09-15T04:37:36.239Z,18.5
2014-09-15T04:38:40.226Z,18.36
2014-09-15T04:39:44.915Z,18.38
2014-09-15T04:40:49.886Z,18.27
2014-09-15T04:41:54.576Z,18.28
2014-09-15T04:42:59.250Z,18.31
2014-09-15T04:44:03.940Z,18.37
2014-09-15T04:45:08.614Z,18.31
2014-09-15T04:46:13.580Z,17.85
2014-09-15T04:47:18.270Z,17.81
2014-09-15T04:48:22.991Z,17.85
2014-09-15T04:49:27.664Z,17.9
2014-09-15T04:50:32.354Z,18.25
2014-09-15T04:51:37.326Z,18.31
2014-09-15T04:52:42.016Z,18.36
2014-09-15T04:53:46.688Z,18.52
2014-09-15T04:54:51.378Z,18.36
2014-09-15T04:55:56.053Z,18.4
2014-09-15T04:57:00.741Z,18.52
2014-09-15T04:58:05.416Z,18.32
2014-09-15T04:59:10.105Z,18.31
2014-09-15T05:00:14.780Z,18.58
2014-09-15T05:01:19.766Z,18.56
2014-09-15T05:02:24.440Z,18.38
2014-09-15T05:03:29.129Z,18.45
2014-09-15T05:04:33.803Z,18.54
2014-09-15T05:05:38.494Z,18.42
2014-09-15T05:06:43.167Z,18.45
2014-09-15T05:07:47.857Z,18.55
2014-09-15T05:08:52.531Z,18.5
2014-09-15T05:09:57.220Z,18.43
2014-09-15T05:11:01.893Z,18.23
2014-09-15T05:12:06.583Z,18.36
2014-09-15T05:13:11.257Z,18.34
2014-09-15T05:14:16.244Z,18.38
2014-09-15T05:15:21.215Z,18.53
2014-09-15T05:16:25.888Z,18.54
2014-09-15T05:17:30.577Z,18.52
2014-09-15T05:18:35.267Z,18.46
2014-09-15T05:19:39.957Z,18.43
2014-09-15T05:20:44.648Z,18.48
2014-09-15T05:21:49.321Z,18.54
2014-09-15T05:22:54.011Z,18.59
2014-09-15T05:23:58.701Z,18.6
2014-09-15T05:25:03.374Z,18.4
2014-09-15T05:26:08.064Z,18.24
2014-09-15T05:27:12.738Z,18.23
2014-09-15T05:28:17.723Z,18.24
2014-09-15T05:29:22.397Z,18.23
2014-09-15T05:30:27.087Z,18.13
2014-09-15T05:31:31.760Z,18.23
2014-09-15T05:32:36.450Z,18.46
2014-09-15T05:33:41.125Z,18.46
2014-09-15T05:34:45.814Z,18.37
2014-09-15T05:35:50.504Z,18.44
2014-09-15T05:36:55.178Z,18.21
2014-09-15T05:38:00.165Z,18.16
2014-09-15T05:39:04.838Z,18.19
2014-09-15T05:40:09.527Z,18.34
2014-09-15T05:41:14.201Z,18.56
2014-09-15T05:42:18.891Z,18.61
2014-09-15T05:43:23.565Z,18.62
2014-09-15T05:44:28.253Z,18.63
2014-09-15T05:45:32.927Z,18.74
2014-09-15T05:46:37.617Z,18.86
2014-09-15T05:47:42.604Z,18.72
2014-09-15T05:48:47.575Z,18.88
2014-09-15T05:49:52.264Z,18.84
2014-09-15T05:50:56.954Z,18.78
2014-09-15T05:52:01.924Z,18.8
2014-09-15T05:53:06.910Z,18.74
2014-09-15T05:54:11.883Z,18.68
2014-09-15T05:55:16.573Z,18.78
2014-09-15T05:56:21.278Z,18.74
2014-09-15T05:57:25.952Z,18.71
2014-09-15T05:58:30.938Z,18.73
2014-09-15T05:59:35.628Z,18.95
2014-09-15T06:00:40.599Z,18.92
2014-09-15T06:01:45.304Z,19.08
2014-09-15T06:02:49.587Z,19.03
2014-09-15T06:03:54.277Z,18.96
2014-09-15T06:04:59.263Z,19.12
2014-09-15T06:06:04.234Z,18.91
2014-09-15T06:07:08.923Z,18.92
2014-09-15T06:08:13.597Z,18.77
2014-09-15T06:09:18.287Z,18.87
2014-09-15T06:10:22.976Z,19
2014-09-15T06:11:27.650Z,19
2014-09-15T06:12:32.339Z,18.9
2014-09-15T06:13:37.013Z,18.9
2014-09-15T06:14:42.000Z,18.98
2014-09-15T06:15:46.674Z,18.98
2014-09-15T06:16:51.380Z,18.93
2014-09-15T06:17:56.114Z,18.95
2014-09-15T06:19:00.831Z,19.09
2014-09-15T06:20:05.564Z,19.1
2014-09-15T06:21:10.333Z,19.09
2014-09-15T06:22:15.039Z,19.14
2014-09-15T06:23:19.728Z,18.93
2014-09-15T06:24:24.433Z,18.91
2014-09-15T06:25:29.123Z,18.95
2014-09-15T06:26:33.825Z,19.08
2014-09-15T06:27:38.504Z,18.92
2014-09-15T06:28:43.199Z,18.8
2014-09-15T06:29:47.895Z,18.92
2014-09-15T06:30:52.573Z,18.81
2014-09-15T06:31:57.268Z,18.9
2014-09-15T06:33:01.943Z,19.05
2014-09-15T06:34:06.634Z,18.88
2014-09-15T06:35:10.627Z,18.98
2014-09-15T06:36:15.317Z,19.08
2014-09-15T06:37:20.009Z,19.02
2014-09-15T06:38:25.276Z,18.94
2014-09-15T06:39:29.967Z,18.88
2014-09-15T06:40:34.642Z,18.73
2014-09-15T06:41:39.426Z,18.86
2014-09-15T06:42:44.115Z,18.77
2014-09-15T06:43:48.789Z,19.05
2014-09-15T06:44:53.480Z,19.2
2014-09-15T06:45:58.170Z,19.36
2014-09-15T06:47:02.844Z,19.27
2014-09-15T06:48:07.533Z,19.24
2014-09-15T06:49:12.208Z,19.13
2014-09-15T06:50:16.897Z,18.85
2014-09-15T06:51:21.571Z,18.95
2014-09-15T06:52:26.557Z,19.21
2014-09-15T06:53:31.231Z,19.22
2014-09-15T06:54:35.921Z,19.3
2014-09-15T06:55:40.891Z,19.52
2014-09-15T06:56:45.582Z,19.51
2014-09-15T06:57:50.256Z,19.44
2014-09-15T06:58:55.241Z,19.51
2014-09-15T06:59:59.932Z,19.44
2014-09-15T07:01:04.901Z,19.39
2014-09-15T07:02:09.591Z,19.49
2014-09-15T07:03:14.265Z,19.42
2014-09-15T07:04:18.954Z,19.46
2014-09-15T07:05:23.644Z,19.55
2014-09-15T07:06:28.318Z,19.47
2014-09-15T07:07:33.007Z,19.53
2014-09-15T07:08:37.681Z,19.6
2014-09-15T07:09:42.371Z,19.51
2014-09-15T07:10:47.062Z,19.57
2014-09-15T07:11:51.736Z,19.66
2014-09-15T07:12:56.424Z,19.59
2014-09-15T07:14:01.114Z,19.74
2014-09-15T07:15:06.085Z,19.66
2014-09-15T07:16:10.774Z,19.52
2014-09-15T07:17:15.745Z,19.56
2014-09-15T07:18:20.434Z,19.72
2014-09-15T07:19:25.421Z,19.54
2014-09-15T07:20:39.157Z,19.46
2014-09-15T07:21:43.847Z,19.57
2014-09-15T07:22:48.521Z,19.51
2014-09-15T07:23:53.507Z,19.15
2014-09-15T07:24:58.196Z,19.04
2014-09-15T07:26:02.870Z,19.08
2014-09-15T07:27:07.560Z,18.85
2014-09-15T07:28:12.548Z,19.08
2014-09-15T07:29:17.222Z,19.24
2014-09-15T07:30:21.912Z,19.45
2014-09-15T07:31:26.882Z,19.49
2014-09-15T07:32:31.572Z,19.53
2014-09-15T07:33:36.558Z,19.5
2014-09-15T07:34:41.232Z,19.52
2014-09-15T07:35:45.922Z,19.54
2014-09-15T07:36:50.908Z,19.46
2014-09-15T07:37:55.582Z,19.56
2014-09-15T07:39:00.271Z,19.74
2014-09-15T07:40:05.243Z,19.47
2014-09-15T07:41:09.933Z,19.17
2014-09-15T07:42:14.605Z,19.04
2014-09-15T07:43:19.295Z,19.22
2014-09-15T07:44:23.969Z,19.22
2014-09-15T07:45:28.658Z,19.17
2014-09-15T07:46:33.348Z,19.23
2014-09-15T07:47:38.334Z,19.28
2014-09-15T07:48:43.305Z,19.38
2014-09-15T07:49:48.291Z,19.28
2014-09-15T07:50:53.278Z,19.24
2014-09-15T07:51:58.249Z,19.2
2014-09-15T07:53:03.251Z,19.48
2014-09-15T07:54:07.925Z,19.5
2014-09-15T07:55:12.615Z,19.6
2014-09-15T07:56:17.289Z,19.82
2014-09-15T07:57:22.275Z,19.84
2014-09-15T07:58:26.965Z,19.75
2014-09-15T07:59:31.638Z,19.81
2014-09-15T08:00:36.625Z,19.8
2014-09-15T08:01:41.304Z,19.77
2014-09-15T08:02:45.992Z,19.73
2014-09-15T08:03:50.683Z,19.68
2014-09-15T08:04:55.366Z,19.68
2014-09-15T08:06:00.056Z,19.62
2014-09-15T08:07:04.730Z,19.6
2014-09-15T08:08:09.717Z,19.76
2014-09-15T08:09:14.391Z,19.94
2014-09-15T08:10:19.080Z,19.84
2014-09-15T08:11:23.770Z,19.81
2014-09-15T08:12:28.741Z,19.89
2014-09-15T08:13:33.430Z,20.01
2014-09-15T08:14:38.119Z,19.98
2014-09-15T08:15:42.808Z,19.69
2014-09-15T08:16:47.794Z,20.06
2014-09-15T08:17:52.469Z,19.98
2014-09-15T08:18:57.159Z,19.72
2014-09-15T08:20:01.833Z,19.52
2014-09-15T08:21:06.522Z,19.49
2014-09-15T08:22:11.510Z,19.38
2014-09-15T08:23:16.183Z,19.28
2014-09-15T08:24:20.873Z,19.16
2014-09-15T08:25:25.548Z,19.38
2014-09-15T08:26:30.236Z,19.71
2014-09-15T08:27:34.926Z,19.8
2014-09-15T08:28:39.601Z,20.02
2014-09-15T08:29:44.289Z,20.08
2014-09-15T08:30:49.277Z,20.05
2014-09-15T08:31:53.950Z,20.29
2014-09-15T08:32:58.640Z,20.12
2014-09-15T08:34:03.314Z,20.02
2014-09-15T08:35:08.003Z,19.86
2014-09-15T08:36:12.693Z,19.9
2014-09-15T08:37:17.367Z,19.87
2014-09-15T08:38:22.056Z,19.93
2014-09-15T08:39:26.746Z,19.95
2014-09-15T08:40:31.420Z,20
2014-09-15T08:41:36.110Z,20
2014-09-15T08:42:40.784Z,19.94
2014-09-15T08:43:45.473Z,19.89
2014-09-15T08:44:50.147Z,19.87
2014-09-15T08:45:54.852Z,20.11
2014-09-15T08:46:59.822Z,20.12
2014-09-15T08:48:04.513Z,20.03
2014-09-15T08:49:09.500Z,20.23
2014-09-15T08:50:14.173Z,20.22
2014-09-15T08:51:18.862Z,20.16
2014-09-15T08:52:23.552Z,19.9
2014-09-15T08:53:28.227Z,19.57
2014-09-15T08:54:33.212Z,19.9
2014-09-15T08:55:37.902Z,19.83
2014-09-15T08:56:42.872Z,19.95
2014-09-15T08:57:47.562Z,20.18
2014-09-15T08:58:52.236Z,20.38
2014-09-15T08:59:56.925Z,20.24
2014-09-15T09:01:01.599Z,20.1
2014-09-15T09:02:06.289Z,20.06
2014-09-15T09:03:10.963Z,20.07
2014-09-15T09:04:15.652Z,19.96
2014-09-15T09:05:20.342Z,20.16
2014-09-15T09:06:25.015Z,20.47
2014-09-15T09:07:30.001Z,20.65
2014-09-15T09:08:34.692Z,20.56
2014-09-15T09:09:39.366Z,20.33
2014-09-15T09:10:44.368Z,20.12
2014-09-15T09:11:49.058Z,20.29
2014-09-15T09:12:53.732Z,20.32
2014-09-15T09:13:58.421Z,20.28
2014-09-15T09:15:03.111Z,20.25
2014-09-15T09:16:07.784Z,20.43
2014-09-15T09:17:12.474Z,20.58
2014-09-15T09:18:17.148Z,20.6
2014-09-15T09:19:21.836Z,20.65
2014-09-15T09:20:26.823Z,20.8
2014-09-15T09:21:31.499Z,20.97
2014-09-15T09:22:36.188Z,20.87
2014-09-15T09:23:40.878Z,20.76
2014-09-15T09:24:45.567Z,20.65
2014-09-15T09:25:49.553Z,20.85
2014-09-15T09:26:54.243Z,20.76
2014-09-15T09:27:59.229Z,20.83
2014-09-15T09:29:03.903Z,20.92
2014-09-15T09:30:08.593Z,21.17
2014-09-15T09:31:13.579Z,21.32
2014-09-15T09:32:18.252Z,21.02
2014-09-15T09:33:22.941Z,20.95
2014-09-15T09:34:26.943Z,20.73
2014-09-15T09:35:31.619Z,20.36
2014-09-15T09:36:36.324Z,20.67
2014-09-15T09:37:40.342Z,20.46
2014-09-15T09:38:45.313Z,20.71
2014-09-15T09:39:50.002Z,20.5
2014-09-15T09:40:54.692Z,20.32
2014-09-15T09:41:59.366Z,20.62
2014-09-15T09:43:04.055Z,20.79
2014-09-15T09:44:08.745Z,21.12
2014-09-15T09:45:13.714Z,21.04
2014-09-15T09:46:18.404Z,20.93
2014-09-15T09:47:22.407Z,20.92
2014-09-15T09:48:27.095Z,21.07
2014-09-15T09:49:31.771Z,21.17
2014-09-15T09:50:36.461Z,20.82
2014-09-15T09:51:41.446Z,20.37
2014-09-15T09:52:46.120Z,20.68
2014-09-15T09:53:50.826Z,20.83
2014-09-15T09:54:55.500Z,20.61
2014-09-15T09:56:00.190Z,20.38
2014-09-15T09:57:05.175Z,20.6
2014-09-15T09:58:09.849Z,20.72
2014-09-15T09:59:14.538Z,20.96
2014-09-15T10:00:19.228Z,21.27
2014-09-15T10:01:23.903Z,21.06
2014-09-15T10:02:28.591Z,21.02
2014-09-15T10:03:33.283Z,20.85
2014-09-15T10:04:37.956Z,20.93
2014-09-15T10:05:42.645Z,21.26
2014-09-15T10:06:46.647Z,21.26
2014-09-15T10:07:51.337Z,21.35
2014-09-15T10:08:56.026Z,21.3
2014-09-15T10:10:00.701Z,21.22
2014-09-15T10:11:05.389Z,20.7
2014-09-15T10:12:10.079Z,20.76
2014-09-15T10:13:15.065Z,20.83
2014-09-15T10:14:19.770Z,20.91
2014-09-15T10:15:24.757Z,20.73
2014-09-15T10:16:29.446Z,20.78
2014-09-15T10:17:34.138Z,21.32
2014-09-15T10:18:38.827Z,21.31
2014-09-15T10:19:43.501Z,21.25
2014-09-15T10:20:48.488Z,21.11
2014-09-15T10:21:53.192Z,20.81
2014-09-15T10:22:57.881Z,21.03
2014-09-15T10:24:02.571Z,21.28
2014-09-15T10:25:07.245Z,21.33
2014-09-15T10:26:12.231Z,21.22
2014-09-15T10:27:16.920Z,21.04
2014-09-15T10:28:21.594Z,21.18
2014-09-15T10:29:26.284Z,21.34
2014-09-15T10:30:30.973Z,21.63
2014-09-15T10:31:35.649Z,21.56
2014-09-15T10:32:40.635Z,21.84
2014-09-15T10:33:45.324Z,21.86
2014-09-15T10:34:50.014Z,21.84
2014-09-15T10:35:54.984Z,21.78
2014-09-15T10:36:59.674Z,21.9
2014-09-15T10:38:04.348Z,22.06
2014-09-15T10:39:09.334Z,21.63
2014-09-15T10:40:14.024Z,21.78
2014-09-15T10:41:18.713Z,21.93
2014-09-15T10:42:23.387Z,21.85
2014-09-15T10:43:28.076Z,21.45
2014-09-15T10:44:32.767Z,21.36
2014-09-15T10:45:37.441Z,21.66
2014-09-15T10:46:42.130Z,21.89
2014-09-15T10:47:46.804Z,22.11
2014-09-15T10:48:51.494Z,22.22
2014-09-15T10:49:56.480Z,22.15
2014-09-15T10:51:01.170Z,21.75
2014-09-15T10:52:06.140Z,21.31
2014-09-15T10:53:10.830Z,21.48
2014-09-15T10:54:15.519Z,21.76
2014-09-15T10:55:20.193Z,21.8
2014-09-15T10:56:25.180Z,21.98
2014-09-15T10:57:29.869Z,21.96
2014-09-15T10:58:34.842Z,22.01
2014-09-15T10:59:39.828Z,22.08
2014-09-15T11:00:44.815Z,22.16
2014-09-15T11:01:49.503Z,22.3
2014-09-15T11:02:54.177Z,22.27
2014-09-15T11:03:59.163Z,22.44
2014-09-15T11:05:03.853Z,22.49
2014-09-15T11:06:08.527Z,22.44
2014-09-15T11:07:13.216Z,22.66
2014-09-15T11:08:17.905Z,22.71
2014-09-15T11:09:22.579Z,22.21
2014-09-15T11:10:27.268Z,22.13
2014-09-15T11:11:32.255Z,21.9
2014-09-15T11:12:37.228Z,22
2014-09-15T11:13:42.215Z,22.05
2014-09-15T11:14:46.903Z,22.02
2014-09-15T11:15:51.577Z,21.98
2014-09-15T11:16:56.266Z,22.37
2014-09-15T11:18:00.956Z,22.32
2014-09-15T11:19:05.630Z,22.42
2014-09-15T11:20:10.320Z,22.56
2014-09-15T11:21:14.994Z,22.52
2014-09-15T11:22:19.684Z,22.61
2014-09-15T11:23:24.373Z,22.73
2014-09-15T11:24:29.048Z,22.67
2014-09-15T11:25:34.033Z,22.22
2014-09-15T11:26:38.723Z,22.12
2014-09-15T11:27:43.709Z,22.2
2014-09-15T11:28:48.680Z,22.23
2014-09-15T11:29:53.666Z,22.34
2014-09-15T11:30:58.356Z,22.44
2014-09-15T11:32:03.327Z,22.3
2014-09-15T11:33:08.016Z,22.14
2014-09-15T11:34:12.706Z,22.61
2014-09-15T11:35:17.692Z,22.72
2014-09-15T11:36:22.662Z,22.42
2014-09-15T11:37:27.351Z,22.43
2014-09-15T11:38:32.025Z,22.64
2014-09-15T11:39:36.717Z,22.53
2014-09-15T11:40:42.000Z,22.46
2014-09-15T11:41:46.689Z,22.5
2014-09-15T11:42:51.363Z,22.67
2014-09-15T11:43:56.053Z,22.68
2014-09-15T11:45:00.742Z,22.53
2014-09-15T11:46:05.416Z,22.66
2014-09-15T11:47:10.403Z,22.79
2014-09-15T11:48:15.092Z,22.8
2014-09-15T11:49:19.766Z,22.82
2014-09-15T11:50:24.751Z,22.58
2014-09-15T11:51:29.441Z,22.14
2014-09-15T11:52:33.446Z,22.36
2014-09-15T11:53:38.121Z,22.61
2014-09-15T11:54:42.809Z,22.7
2014-09-15T11:55:47.796Z,22.69
2014-09-15T11:56:52.485Z,22.76
2014-09-15T11:57:57.158Z,22.74
2014-09-15T11:59:01.848Z,22.82
2014-09-15T12:00:06.538Z,22.69
2014-09-15T12:01:11.524Z,23.01
2014-09-15T12:02:16.197Z,22.43
2014-09-15T12:03:21.184Z,22.42
2014-09-15T12:04:25.873Z,22.58
2014-09-15T12:05:30.563Z,22.6
2014-09-15T12:06:35.535Z,22.68
2014-09-15T12:07:40.225Z,22.63
2014-09-15T12:08:44.914Z,22.54
2014-09-15T12:09:49.901Z,22.48
2014-09-15T12:10:54.871Z,22.57
2014-09-15T12:11:59.561Z,22.7
2014-09-15T12:13:04.250Z,22.56
2014-09-15T12:14:08.923Z,22.26
2014-09-15T12:15:13.910Z,22.34
2014-09-15T12:16:18.599Z,22.22
2014-09-15T12:17:23.273Z,22.44
2014-09-15T12:18:27.963Z,22.51
2014-09-15T12:19:32.668Z,22.68
2014-09-15T12:20:37.344Z,22.84
2014-09-15T12:21:42.330Z,22.61
2014-09-15T12:22:47.019Z,22.43
2014-09-15T12:23:51.708Z,22.52
2014-09-15T12:24:56.694Z,22.62
2014-09-15T12:26:01.384Z,22.83
2014-09-15T12:27:06.059Z,22.86
2014-09-15T12:28:10.748Z,22.57
2014-09-15T12:29:15.438Z,22.28
2014-09-15T12:30:20.127Z,22.32
2014-09-15T12:31:24.817Z,22.18
2014-09-15T12:32:29.818Z,22.38
2014-09-15T12:33:34.509Z,22.63
2014-09-15T12:34:39.199Z,22.63
2014-09-15T12:35:43.887Z,22.7
2014-09-15T12:36:48.561Z,22.79
2014-09-15T12:37:53.548Z,22.78
2014-09-15T12:38:58.238Z,22.89
2014-09-15T12:40:02.912Z,22.87
2014-09-15T12:41:07.898Z,22.88
2014-09-15T12:42:12.588Z,22.83
2014-09-15T12:43:17.261Z,23.03
2014-09-15T12:44:21.950Z,22.99
2014-09-15T12:45:26.640Z,23.1
2014-09-15T12:46:31.313Z,23.13
2014-09-15T12:47:36.005Z,23.24
2014-09-15T12:48:40.693Z,23.27
2014-09-15T12:49:45.367Z,23.17
2014-09-15T12:50:50.058Z,23.06
2014-09-15T12:51:55.029Z,23.02
2014-09-15T12:52:59.718Z,22.65
2014-09-15T12:54:04.703Z,22.67
2014-09-15T12:55:09.690Z,22.87
2014-09-15T12:56:14.676Z,22.77
2014-09-15T12:57:19.647Z,22.82
2014-09-15T12:58:24.336Z,22.78
2014-09-15T12:59:29.620Z,22.7
2014-09-15T13:00:34.608Z,22.71
2014-09-15T13:01:39.594Z,22.87
2014-09-15T13:02:44.581Z,22.76
2014-09-15T13:03:49.255Z,22.78
2014-09-15T13:04:53.944Z,22.65
2014-09-15T13:05:58.930Z,22.47
2014-09-15T13:07:03.619Z,22.58
2014-09-15T13:08:08.309Z,22.74
2014-09-15T13:09:12.982Z,22.37
2014-09-15T13:10:17.969Z,22.28
2014-09-15T13:11:22.658Z,22.36
2014-09-15T13:12:27.629Z,22.3
2014-09-15T13:13:32.615Z,22.26
2014-09-15T13:14:37.604Z,22.37
2014-09-15T13:15:42.278Z,22.49
2014-09-15T13:16:47.263Z,22.52
2014-09-15T13:17:51.953Z,22.55
2014-09-15T13:18:56.626Z,22.42
2014-09-15T13:20:01.316Z,22.69
2014-09-15T13:21:06.302Z,22.84
2014-09-15T13:22:11.273Z,22.96
2014-09-15T13:23:15.963Z,22.99
2014-09-15T13:24:20.652Z,22.83
2014-09-15T13:25:25.342Z,23.1
2014-09-15T13:26:30.015Z,22.97
2014-09-15T13:27:34.707Z,23.02
2014-09-15T13:28:39.395Z,23.13
2014-09-15T13:29:44.383Z,23.05
2014-09-15T13:30:49.072Z,22.76
2014-09-15T13:31:53.074Z,22.69
2014-09-15T13:32:57.747Z,22.82
2014-09-15T13:34:02.750Z,22.64
2014-09-15T13:35:07.425Z,23.12
2014-09-15T13:36:12.114Z,22.95
2014-09-15T13:37:17.101Z,23.16
2014-09-15T13:38:21.789Z,23.09
2014-09-15T13:39:26.777Z,22.87
2014-09-15T13:40:31.465Z,22.89
2014-09-15T13:41:36.452Z,23.16
2014-09-15T13:42:41.438Z,23.55
2014-09-15T13:43:46.112Z,23.37
2014-09-15T13:44:50.801Z,23.32
2014-09-15T13:45:55.491Z,23.06
2014-09-15T13:47:00.180Z,23.01
2014-09-15T13:48:04.870Z,23.14
2014-09-15T13:49:09.855Z,23.3
2014-09-15T13:50:14.529Z,23.47
2014-09-15T13:51:19.516Z,23.51
2014-09-15T13:52:24.205Z,23.56
2014-09-15T13:53:28.895Z,23.32
2014-09-15T13:54:33.568Z,23.52
2014-09-15T13:55:38.261Z,23.6
2014-09-15T13:56:42.935Z,23.58